地図

経路データ

SID SEASON NUMBER BASIN SUBBASIN NAME ISO_TIME NATURE LAT LON WMO_WIND WMO_PRES WMO_AGENCY TRACK_TYPE DIST2LAND LANDFALL IFLAG USA_AGENCY USA_ATCF_ID USA_LAT USA_LON USA_RECORD USA_STATUS USA_WIND USA_PRES USA_SSHS USA_R34_NE USA_R34_SE USA_R34_SW USA_R34_NW USA_R50_NE USA_R50_SE USA_R50_SW USA_R50_NW USA_R64_NE USA_R64_SE USA_R64_SW USA_R64_NW USA_POCI USA_ROCI USA_RMW USA_EYE TOKYO_LAT TOKYO_LON TOKYO_GRADE TOKYO_WIND TOKYO_PRES TOKYO_R50_DIR TOKYO_R50_LONG TOKYO_R50_SHORT TOKYO_R30_DIR TOKYO_R30_LONG TOKYO_R30_SHORT TOKYO_LAND CMA_LAT CMA_LON CMA_CAT CMA_WIND CMA_PRES HKO_LAT HKO_LON HKO_CAT HKO_WIND HKO_PRES NEWDELHI_LAT NEWDELHI_LON NEWDELHI_GRADE NEWDELHI_WIND NEWDELHI_PRES NEWDELHI_CI NEWDELHI_DP NEWDELHI_POCI REUNION_LAT REUNION_LON REUNION_TYPE REUNION_WIND REUNION_PRES REUNION_TNUM REUNION_CI REUNION_RMW REUNION_R34_NE REUNION_R34_SE REUNION_R34_SW REUNION_R34_NW REUNION_R50_NE REUNION_R50_SE REUNION_R50_SW REUNION_R50_NW REUNION_R64_NE REUNION_R64_SE REUNION_R64_SW REUNION_R64_NW BOM_LAT BOM_LON BOM_TYPE BOM_WIND BOM_PRES BOM_TNUM BOM_CI BOM_RMW BOM_R34_NE BOM_R34_SE BOM_R34_SW BOM_R34_NW BOM_R50_NE BOM_R50_SE BOM_R50_SW BOM_R50_NW BOM_R64_NE BOM_R64_SE BOM_R64_SW BOM_R64_NW BOM_ROCI BOM_POCI BOM_EYE BOM_POS_METHOD BOM_PRES_METHOD NADI_LAT NADI_LON NADI_CAT NADI_WIND NADI_PRES WELLINGTON_LAT WELLINGTON_LON WELLINGTON_WIND WELLINGTON_PRES DS824_LAT DS824_LON DS824_STAGE DS824_WIND DS824_PRES TD9636_LAT TD9636_LON TD9636_STAGE TD9636_WIND TD9636_PRES TD9635_LAT TD9635_LON TD9635_WIND TD9635_PRES TD9635_ROCI NEUMANN_LAT NEUMANN_LON NEUMANN_CLASS NEUMANN_WIND NEUMANN_PRES MLC_LAT MLC_LON MLC_CLASS MLC_WIND MLC_PRES USA_GUST BOM_GUST BOM_GUST_PER REUNION_GUST REUNION_GUST_PER USA_SEAHGT USA_SEARAD_NE USA_SEARAD_SE USA_SEARAD_SW USA_SEARAD_NW STORM_SPEED STORM_DIR
1859234N24275 1859 16 NA GM NOT_NAMED 1859-08-21 12:00:00 TS 24.0000 -85.4000 main 203 203 _____________O -1 24.0000 -85.4000 TD 30 4 11
1859234N24275 1859 16 NA GM NOT_NAMED 1859-08-21 15:00:00 TS 24.1900 -85.3625 main 220 213 _____________P -1 24.1900 -85.3625 TD 30 4 12
1859234N24275 1859 16 NA GM NOT_NAMED 1859-08-21 18:00:00 TS 24.4000 -85.3000 main 231 231 _____________O -1 24.4000 -85.3000 TD 30 5 18
1859234N24275 1859 16 NA GM NOT_NAMED 1859-08-21 21:00:00 TS 24.6425 -85.2001 main 244 244 _____________P -1 24.6425 -85.2001 TD 30 5 20
1859234N24275 1859 16 NA GM NOT_NAMED 1859-08-22 00:00:00 TS 24.9000 -85.1000 main 270 270 _____________O -1 24.9000 -85.1000 TD 30 5 15
1859234N24275 1859 16 NA GM NOT_NAMED 1859-08-22 03:00:00 TS 25.1575 -85.0499 main 297 297 _____________P -1 25.1575 -85.0499 TD 35 5 10
1859234N24275 1859 16 NA GM NOT_NAMED 1859-08-22 06:00:00 TS 25.4000 -85.0000 main 311 291 _____________O -1 25.4000 -85.0000 TS 40 5 18
1859234N24275 1859 16 NA GM NOT_NAMED 1859-08-22 09:00:00 TS 25.6000 -84.8926 main 291 272 _____________P -1 25.6000 -84.8926 TS 45 4 24
1859234N24275 1859 16 NA GM NOT_NAMED 1859-08-22 12:00:00 TS 25.8000 -84.8000 main 272 262 _____________O -1 25.8000 -84.8000 TS 50 5 10
1859234N24275 1859 16 NA GM NOT_NAMED 1859-08-22 15:00:00 TS 26.0425 -84.7998 main 262 245 _____________P -1 26.0425 -84.7998 TS 55 5 2
1859234N24275 1859 16 NA GM NOT_NAMED 1859-08-22 18:00:00 TS 26.3000 -84.8000 main 245 226 _____________O -1 26.3000 -84.8000 TS 60 992 5 9
1859234N24275 1859 16 NA GM NOT_NAMED 1859-08-22 21:00:00 TS 26.5500 -84.7150 main 222 205 _____________P -1 26.5500 -84.7150 TS 60 5 20
1859234N24275 1859 16 NA GM NOT_NAMED 1859-08-23 00:00:00 TS 26.8000 -84.6000 main 205 187 _____________O -1 26.8000 -84.6000 TS 60 5 21
1859234N24275 1859 16 NA GM NOT_NAMED 1859-08-23 03:00:00 TS 27.0500 -84.5000 main 187 162 _____________P -1 27.0500 -84.5000 TS 60 5 20
1859234N24275 1859 16 NA GM NOT_NAMED 1859-08-23 06:00:00 TS 27.3000 -84.4000 main 162 144 _____________O -1 27.3000 -84.4000 TS 60 5 20
1859234N24275 1859 16 NA GM NOT_NAMED 1859-08-23 09:00:00 TS 27.5425 -84.2999 main 144 128 _____________P -1 27.5425 -84.2999 TS 60 5 20
1859234N24275 1859 16 NA GM NOT_NAMED 1859-08-23 12:00:00 TS 27.8000 -84.2000 main 128 117 _____________O -1 27.8000 -84.2000 TS 60 6 18
1859234N24275 1859 16 NA GM NOT_NAMED 1859-08-23 15:00:00 TS 28.0850 -84.0999 main 119 112 _____________P -1 28.0850 -84.0999 TS 60 6 16
1859234N24275 1859 16 NA GM NOT_NAMED 1859-08-23 18:00:00 TS 28.4000 -84.0000 main 121 103 _____________O -1 28.4000 -84.0000 TS 60 7 9
1859234N24275 1859 16 NA GM NOT_NAMED 1859-08-23 21:00:00 TS 28.7495 -83.9743 main 103 59 _____________P -1 28.7495 -83.9743 TS 60 7 14
1859234N24275 1859 16 NA GM NOT_NAMED 1859-08-24 00:00:00 TS 29.1000 -83.8000 main 59 9 _____________O -1 29.1000 -83.8000 TS 60 9 43
1859234N24275 1859 16 NA GM NOT_NAMED 1859-08-24 03:00:00 TS 29.4079 -83.2752 main 9 0 _____________P -1 29.4079 -83.2752 TS 55 12 60
1859234N24275 1859 16 NA NA NOT_NAMED 1859-08-24 06:00:00 TS 29.7000 -82.6000 main 0 0 _____________O -1 29.7000 -82.6000 TS 50 12 62
1859234N24275 1859 16 NA NA NOT_NAMED 1859-08-24 09:00:00 TS 29.9602 -82.1023 main 0 0 _____________P -1 29.9602 -82.1023 TS 50 12 60
1859234N24275 1859 16 NA NA NOT_NAMED 1859-08-24 12:00:00 TS 30.3000 -81.4000 main 9 9 _____________O -1 30.3000 -81.4000 TS 50 18 65
1859234N24275 1859 16 NA NA NOT_NAMED 1859-08-24 15:00:00 TS 30.7395 -80.1809 main 114 114 _____________P -1 30.7395 -80.1809 TS 50 25 64
1859234N24275 1859 16 NA NA NOT_NAMED 1859-08-24 18:00:00 TS 31.4000 -78.8000 main 175 164 _____________O -1 31.4000 -78.8000 TS 50 29 53
1859234N24275 1859 16 NA NA NOT_NAMED 1859-08-24 21:00:00 TS 32.4731 -77.5209 main 162 133 _____________P -1 32.4731 -77.5209 TS 55 29 43
1859234N24275 1859 16 NA NA NOT_NAMED 1859-08-25 00:00:00 TS 33.5000 -76.5000 main 133 90 _____________O -1 33.5000 -76.5000 TS 60 20 40
1859234N24275 1859 16 NA NA NOT_NAMED 1859-08-25 03:00:00 TS 34.0030 -75.9753 main 90 84 _____________P -1 34.0030 -75.9753 TS 62 10 40
1859234N24275 1859 16 NA NA NOT_NAMED 1859-08-25 06:00:00 TS 34.3000 -75.7000 main 85 84 _____________O -1 34.3000 -75.7000 HU 65 8 41
1859234N24275 1859 16 NA NA NOT_NAMED 1859-08-25 09:00:00 TS 34.5745 -75.3774 main 88 88 _____________P -1 34.5745 -75.3774 HU 65 9 39
1859234N24275 1859 16 NA NA NOT_NAMED 1859-08-25 12:00:00 TS 35.0000 -75.0000 main 92 79 _____________O -1 35.0000 -75.0000 HU 65 15 32
1859234N24275 1859 16 NA NA NOT_NAMED 1859-08-25 15:00:00 TS 35.8177 -74.4458 main 98 98 _____________P -1 35.8177 -74.4458 HU 62 20 28
1859234N24275 1859 16 NA NA NOT_NAMED 1859-08-25 18:00:00 TS 36.8000 -73.8000 main 182 172 _____________O -1 36.8000 -73.8000 TS 60 21 27
1859234N24275 1859 16 NA NA NOT_NAMED 1859-08-25 21:00:00 TS 37.6979 -73.2427 main 178 175 _____________P -1 37.6979 -73.2427 TS 50 21 30
1859234N24275 1859 16 NA NA NOT_NAMED 1859-08-26 00:00:00 TS 38.6000 -72.5000 main 184 181 _____________O -1 38.6000 -72.5000 TS 40 23 40
1859234N24275 1859 16 NA NA NOT_NAMED 1859-08-26 03:00:00 TS 39.4862 -71.3392 main 181 142 _____________P -1 39.4862 -71.3392 TS 35 26 47
1859234N24275 1859 16 NA NA NOT_NAMED 1859-08-26 06:00:00 ET 40.4000 -70.0000 main 135 99 _____________O -1 40.4000 -70.0000 EX 30 27 46
1859234N24275 1859 16 NA NA NOT_NAMED 1859-08-26 09:00:00 ET 41.3811 -68.7267 main 112 112 _____________P -1 41.3811 -68.7267 EX 27 27 43
1859234N24275 1859 16 NA NA NOT_NAMED 1859-08-26 12:00:00 ET 42.4000 -67.5000 main 183 _____________O -1 42.4000 -67.5000 EX 25 27 42

IBTrACS Databaseについて

本データベースは、米国NOAAが公開する1842年以降の世界の熱帯低気圧のベストトラックデータアーカイブInternational Best Track Archive for Climate Stewardship (IBTrACS)を、ウェブで閲覧しやすい形式に変換したものです。

最終更新日:2021-10-08